Terminal Aerodrome Forecast
Issued by NWS

Home | Current Version | Previous Version | Text Only | Print | Product List | Glossary Off
Versions: 1 2 3 4 5 6 7 8 9 10 11 12 13 14 15 16 17 18 19 20 21 22 23 24 25 26 27 28 29 30

000
FTUS43 KGLD 302334
TAFMCK
TAF
KMCK 302334Z 3100/3124 16010KT P6SM SKC
     FM310300 16010KT P6SM BKN100 WS005/21050KT
     FM310900 VRB06KT P6SM BKN150=

USA.gov is the U.S. government's official web portal to all federal, state and local government web resources and services.